Casper, WY (82604)

3:24 PM MDT on September 23, 2014 (GMT -0600)
North of Casper, WY | Change Station
CLOSE
Current Station
Personal Weather Station
Location: Bar Nunn, WY
Elevation: 5276 ft
Nearby Weather Stations

Elev 5276 ft 42.91 °N, 106.35 °W | Updated 4 minutes ago

Mostly Cloudy
Mostly Cloudy
77.1 °F
Feels Like 78 °F
N
3.8
Wind Variable Wind from North
Gusts 6.9 mph

Today
High -- | Low -- °F
--% Chance of Precip.
Yesterday
High -- | Low -- °F
Precip. -- in
6:54 AM 7:00 PM
Waning Crescent, 0% visible
Pressure 29.92 in
Visibility 10.0 miles
Clouds Mostly Cloudy 9000 ft
Heat Index 78 °F
Dew Point 43 °F
Humidity 30%
Rainfall 0.00 in
Snow Depth 0 in , 0 in , 1 in
UV 3 out of 12
Pollen 5.70 out of 12
Air Quality Not available.
Flu Activity Not available.
METAR KCPR 232053Z 30011KT 10SM BKN090 25/03 A3010 RMK AO2 SLP131 T02500033 58003

More Conditions Fewer Conditions

Pressure 29.92 in
Visibility 10.0 miles
Clouds Mostly Cloudy 9000 ft
Heat Index 78 °F
Dew Point 43 °F
Humidity 30%
Rainfall 0.00 in
Snow Depth 0 in , 0 in , 1 in
UV 3 out of 12
Pollen 5.70 out of 12
Air Quality Not available.
Flu Activity Not available.
METAR KCPR 232053Z 30011KT 10SM BKN090 25/03 A3010 RMK AO2 SLP131 T02500033 58003

More Conditions Fewer Conditions

10-Day Weather Forecast

Almanac

Astronomy

Sep. 23, 2014 Rise Set
Actual Time 6:54 AM MDT 7:00 PM MDT
Civil Twilight 6:25 AM MDT 7:29 PM MDT
Nautical Twilight 5:52 AM MDT 8:02 PM MDT
Astronomical Twilight 5:18 AM MDT 8:35 PM MDT
Moon 6:20 AM MDT 6:40 PM MDT
Length of Visible Light 13h 03m
Length of Day
12h 06m
Tomorrow will be 2m 52s shorter.
Waning Crescent, 0% of the Moon is Illuminated
Today
Waning Crescent
Sep 24
New
Oct 1
First Quarter
Oct 8
Full
Oct 15
Last Quarter

Today's Extremes

State Highs State Lows

Community

WunderPhotos

Upload Photos

1,755,793 photos uploaded!

WunderBlogs® & News

By Dr. Jeff Masters
Director of Meteorology, Weather Underground
By Kari Strenfel
Meteorologist, Weather Underground
By Christopher C. Burt
Weather Historian, Weather Underground
September 23, 2014
September 23, 2014
September 23, 2014

Nearby

Snow Depth

Station Depth Elevation
Gros Ventre Summit 0 in 8750 ft
Spring Creek Divide 0 in 9000 ft
Kendall R.S. 1 in 7740 ft
South Brush Creek 0 in 8440 ft
Loomis Park 0 in 8240 ft

Earthquake Activity

City Distance Mag. Time & Date
No recent earthquake activity has been reported nearby.
Minimum magnitude displayed is 2.5.

Coastal Water Temperatures

Place Temperature
No Stations Reporting

Nearby Weather Stations